sensor_id;sensor_type;location;lat;lon;timestamp;temperature;humidity
60717;DHT22;46566;52.700;6.192;2023-07-31T00:00:13;15.60;99.90
60717;DHT22;46566;52.700;6.192;2023-07-31T00:02:38;15.60;99.90
60717;DHT22;46566;52.700;6.192;2023-07-31T00:05:04;15.60;99.90
60717;DHT22;46566;52.700;6.192;2023-07-31T00:07:31;15.60;99.90
60717;DHT22;46566;52.700;6.192;2023-07-31T00:09:57;15.50;99.90
60717;DHT22;46566;52.700;6.192;2023-07-31T00:14:49;15.50;99.90
60717;DHT22;46566;52.700;6.192;2023-07-31T00:17:17;15.40;99.90
60717;DHT22;46566;52.700;6.192;2023-07-31T00:19:42;15.40;99.90
60717;DHT22;46566;52.700;6.192;2023-07-31T00:22:08;15.40;99.90
60717;DHT22;46566;52.700;6.192;2023-07-31T00:24:34;15.40;99.90
60717;DHT22;46566;52.700;6.192;2023-07-31T00:26:59;15.30;99.90
60717;DHT22;46566;52.700;6.192;2023-07-31T00:31:52;15.30;99.90
60717;DHT22;46566;52.700;6.192;2023-07-31T00:34:18;15.30;99.90
60717;DHT22;46566;52.700;6.192;2023-07-31T00:36:44;15.30;99.90
60717;DHT22;46566;52.700;6.192;2023-07-31T00:39:09;15.20;99.90
60717;DHT22;46566;52.700;6.192;2023-07-31T00:41:35;15.20;99.90
60717;DHT22;46566;52.700;6.192;2023-07-31T00:44:01;15.20;99.90
60717;DHT22;46566;52.700;6.192;2023-07-31T00:46:26;15.20;99.90
60717;DHT22;46566;52.700;6.192;2023-07-31T00:48:52;15.20;99.90
60717;DHT22;46566;52.700;6.192;2023-07-31T00:51:18;15.20;99.90
60717;DHT22;46566;52.700;6.192;2023-07-31T00:53:44;15.20;99.90
60717;DHT22;46566;52.700;6.192;2023-07-31T00:56:11;15.20;99.90
60717;DHT22;46566;52.700;6.192;2023-07-31T00:58:38;15.10;99.90
60717;DHT22;46566;52.700;6.192;2023-07-31T01:01:04;15.20;99.90
60717;DHT22;46566;52.700;6.192;2023-07-31T01:03:29;15.20;99.90
60717;DHT22;46566;52.700;6.192;2023-07-31T01:06:15;15.20;99.90
60717;DHT22;46566;52.700;6.192;2023-07-31T01:09:08;15.20;99.90
60717;DHT22;46566;52.700;6.192;2023-07-31T01:11:56;15.20;99.90
60717;DHT22;46566;52.700;6.192;2023-07-31T01:14:22;15.20;99.90
60717;DHT22;46566;52.700;6.192;2023-07-31T01:16:48;15.20;99.90
60717;DHT22;46566;52.700;6.192;2023-07-31T01:19:15;15.20;99.90
60717;DHT22;46566;52.700;6.192;2023-07-31T01:22:04;15.20;99.90
60717;DHT22;46566;52.700;6.192;2023-07-31T01:25:12;15.20;99.90
60717;DHT22;46566;52.700;6.192;2023-07-31T01:27:51;15.30;99.90
60717;DHT22;46566;52.700;6.192;2023-07-31T01:30:22;15.30;99.90
60717;DHT22;46566;52.700;6.192;2023-07-31T01:32:51;15.30;99.90
60717;DHT22;46566;52.700;6.192;2023-07-31T01:35:18;15.30;99.90
60717;DHT22;46566;52.700;6.192;2023-07-31T01:37:45;15.30;99.90
60717;DHT22;46566;52.700;6.192;2023-07-31T01:40:11;15.30;99.90
60717;DHT22;46566;52.700;6.192;2023-07-31T01:42:36;15.30;99.90
60717;DHT22;46566;52.700;6.192;2023-07-31T01:45:02;15.30;99.90
60717;DHT22;46566;52.700;6.192;2023-07-31T01:47:28;15.30;99.90
60717;DHT22;46566;52.700;6.192;2023-07-31T01:49:53;15.30;99.90
60717;DHT22;46566;52.700;6.192;2023-07-31T01:52:19;15.30;99.90
60717;DHT22;46566;52.700;6.192;2023-07-31T01:54:45;15.30;99.90
60717;DHT22;46566;52.700;6.192;2023-07-31T01:57:10;15.30;99.90
60717;DHT22;46566;52.700;6.192;2023-07-31T01:59:36;15.30;99.90
60717;DHT22;46566;52.700;6.192;2023-07-31T02:02:02;15.30;99.90
60717;DHT22;46566;52.700;6.192;2023-07-31T02:04:29;15.30;99.90
60717;DHT22;46566;52.700;6.192;2023-07-31T02:06:55;15.30;99.90
60717;DHT22;46566;52.700;6.192;2023-07-31T02:09:21;15.40;99.90
60717;DHT22;46566;52.700;6.192;2023-07-31T02:11:46;15.40;99.90
60717;DHT22;46566;52.700;6.192;2023-07-31T02:14:12;15.50;99.90
60717;DHT22;46566;52.700;6.192;2023-07-31T02:16:37;15.50;99.90
60717;DHT22;46566;52.700;6.192;2023-07-31T02:19:03;15.50;99.90
60717;DHT22;46566;52.700;6.192;2023-07-31T02:21:29;15.50;99.90
60717;DHT22;46566;52.700;6.192;2023-07-31T02:23:54;15.60;99.90
60717;DHT22;46566;52.700;6.192;2023-07-31T02:26:20;15.60;99.90
60717;DHT22;46566;52.700;6.192;2023-07-31T02:28:46;15.70;99.90
60717;DHT22;46566;52.700;6.192;2023-07-31T02:31:12;15.70;99.90
60717;DHT22;46566;52.700;6.192;2023-07-31T02:33:38;15.70;99.90
60717;DHT22;46566;52.700;6.192;2023-07-31T02:36:03;15.70;99.90
60717;DHT22;46566;52.700;6.192;2023-07-31T02:38:29;15.80;99.90
60717;DHT22;46566;52.700;6.192;2023-07-31T02:40:55;15.80;99.90
60717;DHT22;46566;52.700;6.192;2023-07-31T02:43:21;15.80;99.90
60717;DHT22;46566;52.700;6.192;2023-07-31T02:45:51;15.80;99.90
60717;DHT22;46566;52.700;6.192;2023-07-31T02:48:17;15.90;99.90
60717;DHT22;46566;52.700;6.192;2023-07-31T02:50:42;15.80;99.90
60717;DHT22;46566;52.700;6.192;2023-07-31T02:53:08;15.80;99.90
60717;DHT22;46566;52.700;6.192;2023-07-31T02:55:34;15.90;99.90
60717;DHT22;46566;52.700;6.192;2023-07-31T02:57:59;15.80;99.90
60717;DHT22;46566;52.700;6.192;2023-07-31T03:00:25;15.80;99.90
60717;DHT22;46566;52.700;6.192;2023-07-31T03:02:51;15.90;99.90
60717;DHT22;46566;52.700;6.192;2023-07-31T03:05:17;15.90;99.90
60717;DHT22;46566;52.700;6.192;2023-07-31T03:07:42;15.90;99.90
60717;DHT22;46566;52.700;6.192;2023-07-31T03:10:08;15.90;99.90
60717;DHT22;46566;52.700;6.192;2023-07-31T03:12:34;15.90;99.90
60717;DHT22;46566;52.700;6.192;2023-07-31T03:15:01;15.90;99.90
60717;DHT22;46566;52.700;6.192;2023-07-31T03:17:26;16.00;99.90
60717;DHT22;46566;52.700;6.192;2023-07-31T03:22:18;16.00;99.90
60717;DHT22;46566;52.700;6.192;2023-07-31T03:24:45;16.10;99.90
60717;DHT22;46566;52.700;6.192;2023-07-31T03:27:10;16.10;99.90
60717;DHT22;46566;52.700;6.192;2023-07-31T03:29:36;16.10;99.90
60717;DHT22;46566;52.700;6.192;2023-07-31T03:32:02;16.10;99.90
60717;DHT22;46566;52.700;6.192;2023-07-31T03:34:28;16.20;99.90
60717;DHT22;46566;52.700;6.192;2023-07-31T03:36:54;16.20;99.90
60717;DHT22;46566;52.700;6.192;2023-07-31T03:39:20;16.20;99.90
60717;DHT22;46566;52.700;6.192;2023-07-31T03:41:46;16.20;99.90
60717;DHT22;46566;52.700;6.192;2023-07-31T03:44:12;16.20;99.90
60717;DHT22;46566;52.700;6.192;2023-07-31T03:46:37;16.30;99.90
60717;DHT22;46566;52.700;6.192;2023-07-31T03:49:03;16.20;99.90
60717;DHT22;46566;52.700;6.192;2023-07-31T03:51:29;16.20;99.90
60717;DHT22;46566;52.700;6.192;2023-07-31T03:53:54;16.20;99.90
60717;DHT22;46566;52.700;6.192;2023-07-31T03:56:20;16.20;99.90
60717;DHT22;46566;52.700;6.192;2023-07-31T03:58:46;16.20;99.90
60717;DHT22;46566;52.700;6.192;2023-07-31T04:01:11;16.20;99.90
60717;DHT22;46566;52.700;6.192;2023-07-31T04:03:37;16.20;99.90
60717;DHT22;46566;52.700;6.192;2023-07-31T04:06:03;16.20;99.90
60717;DHT22;46566;52.700;6.192;2023-07-31T04:08:28;16.20;99.90
60717;DHT22;46566;52.700;6.192;2023-07-31T04:13:22;16.10;99.90
60717;DHT22;46566;52.700;6.192;2023-07-31T04:15:49;16.20;99.90
60717;DHT22;46566;52.700;6.192;2023-07-31T04:18:15;16.30;99.90
60717;DHT22;46566;52.700;6.192;2023-07-31T04:20:41;16.20;99.90
60717;DHT22;46566;52.700;6.192;2023-07-31T04:23:06;16.20;99.90
60717;DHT22;46566;52.700;6.192;2023-07-31T04:25:32;16.30;99.90
60717;DHT22;46566;52.700;6.192;2023-07-31T04:28:00;16.30;99.90
60717;DHT22;46566;52.700;6.192;2023-07-31T04:30:26;16.30;99.90
60717;DHT22;46566;52.700;6.192;2023-07-31T04:32:52;16.20;99.90
60717;DHT22;46566;52.700;6.192;2023-07-31T04:35:17;16.30;99.90
60717;DHT22;46566;52.700;6.192;2023-07-31T04:37:43;16.30;99.90
60717;DHT22;46566;52.700;6.192;2023-07-31T04:40:11;16.30;99.90
60717;DHT22;46566;52.700;6.192;2023-07-31T04:42:37;16.30;99.90
60717;DHT22;46566;52.700;6.192;2023-07-31T04:45:03;16.30;99.90
60717;DHT22;46566;52.700;6.192;2023-07-31T04:47:29;16.30;99.90
60717;DHT22;46566;52.700;6.192;2023-07-31T04:49:55;16.30;99.90
60717;DHT22;46566;52.700;6.192;2023-07-31T04:52:20;16.30;99.90
60717;DHT22;46566;52.700;6.192;2023-07-31T04:54:46;16.30;99.90
60717;DHT22;46566;52.700;6.192;2023-07-31T04:57:12;16.30;99.90
60717;DHT22;46566;52.700;6.192;2023-07-31T04:59:37;16.30;99.90
60717;DHT22;46566;52.700;6.192;2023-07-31T05:02:03;16.30;99.90
60717;DHT22;46566;52.700;6.192;2023-07-31T05:04:29;16.30;99.90
60717;DHT22;46566;52.700;6.192;2023-07-31T05:06:55;16.40;99.90
60717;DHT22;46566;52.700;6.192;2023-07-31T05:09:20;16.40;99.90
60717;DHT22;46566;52.700;6.192;2023-07-31T05:11:46;16.40;99.90
60717;DHT22;46566;52.700;6.192;2023-07-31T05:14:12;16.40;99.90
60717;DHT22;46566;52.700;6.192;2023-07-31T05:16:37;16.40;99.90
60717;DHT22;46566;52.700;6.192;2023-07-31T05:19:03;16.40;99.90
60717;DHT22;46566;52.700;6.192;2023-07-31T05:21:29;16.40;99.90
60717;DHT22;46566;52.700;6.192;2023-07-31T05:23:54;16.40;99.90
60717;DHT22;46566;52.700;6.192;2023-07-31T05:26:20;16.40;99.90
60717;DHT22;46566;52.700;6.192;2023-07-31T05:28:46;16.40;99.90
60717;DHT22;46566;52.700;6.192;2023-07-31T05:31:11;16.40;99.90
60717;DHT22;46566;52.700;6.192;2023-07-31T05:33:37;16.40;99.90
60717;DHT22;46566;52.700;6.192;2023-07-31T05:36:03;16.40;99.90
60717;DHT22;46566;52.700;6.192;2023-07-31T05:40:55;16.40;99.90
60717;DHT22;46566;52.700;6.192;2023-07-31T05:43:21;16.40;99.90
60717;DHT22;46566;52.700;6.192;2023-07-31T05:45:47;16.50;99.90
60717;DHT22;46566;52.700;6.192;2023-07-31T05:48:13;16.50;99.90
60717;DHT22;46566;52.700;6.192;2023-07-31T05:50:38;16.50;99.90
60717;DHT22;46566;52.700;6.192;2023-07-31T05:53:05;16.50;99.90
60717;DHT22;46566;52.700;6.192;2023-07-31T05:55:31;16.50;99.90
60717;DHT22;46566;52.700;6.192;2023-07-31T05:57:57;16.60;99.90
60717;DHT22;46566;52.700;6.192;2023-07-31T06:00:23;16.60;99.90
60717;DHT22;46566;52.700;6.192;2023-07-31T06:02:49;16.60;99.90
60717;DHT22;46566;52.700;6.192;2023-07-31T06:05:14;16.60;99.90
60717;DHT22;46566;52.700;6.192;2023-07-31T06:07:40;16.60;99.90
60717;DHT22;46566;52.700;6.192;2023-07-31T06:10:06;16.50;99.90
60717;DHT22;46566;52.700;6.192;2023-07-31T06:12:33;16.50;99.90
60717;DHT22;46566;52.700;6.192;2023-07-31T06:14:58;16.50;99.90
60717;DHT22;46566;52.700;6.192;2023-07-31T06:17:24;16.50;99.90
60717;DHT22;46566;52.700;6.192;2023-07-31T06:19:51;16.50;99.90
60717;DHT22;46566;52.700;6.192;2023-07-31T06:22:17;16.40;99.90
60717;DHT22;46566;52.700;6.192;2023-07-31T06:24:43;16.40;99.90
60717;DHT22;46566;52.700;6.192;2023-07-31T06:27:10;16.40;99.90
60717;DHT22;46566;52.700;6.192;2023-07-31T06:29:36;16.40;99.90
60717;DHT22;46566;52.700;6.192;2023-07-31T06:32:02;16.40;99.90
60717;DHT22;46566;52.700;6.192;2023-07-31T06:34:28;16.30;99.90
60717;DHT22;46566;52.700;6.192;2023-07-31T06:36:53;16.30;99.90
60717;DHT22;46566;52.700;6.192;2023-07-31T06:39:19;16.30;99.90
60717;DHT22;46566;52.700;6.192;2023-07-31T06:41:45;16.30;99.90
60717;DHT22;46566;52.700;6.192;2023-07-31T06:44:10;16.30;99.90
60717;DHT22;46566;52.700;6.192;2023-07-31T06:46:36;16.20;99.90
60717;DHT22;46566;52.700;6.192;2023-07-31T06:49:02;16.20;99.90
60717;DHT22;46566;52.700;6.192;2023-07-31T06:51:28;16.30;99.90
60717;DHT22;46566;52.700;6.192;2023-07-31T06:53:54;16.20;99.90
60717;DHT22;46566;52.700;6.192;2023-07-31T06:56:21;16.20;99.90
60717;DHT22;46566;52.700;6.192;2023-07-31T06:58:47;16.30;99.90
60717;DHT22;46566;52.700;6.192;2023-07-31T07:01:12;16.30;99.90
60717;DHT22;46566;52.700;6.192;2023-07-31T07:03:38;16.30;99.90
60717;DHT22;46566;52.700;6.192;2023-07-31T07:06:03;16.30;99.90
60717;DHT22;46566;52.700;6.192;2023-07-31T07:08:29;16.30;99.90
60717;DHT22;46566;52.700;6.192;2023-07-31T07:10:55;16.30;99.90
60717;DHT22;46566;52.700;6.192;2023-07-31T07:13:21;16.30;99.90
60717;DHT22;46566;52.700;6.192;2023-07-31T07:15:50;16.30;99.90
60717;DHT22;46566;52.700;6.192;2023-07-31T07:18:17;16.20;99.90
60717;DHT22;46566;52.700;6.192;2023-07-31T07:20:50;16.20;99.90
60717;DHT22;46566;52.700;6.192;2023-07-31T07:23:16;16.20;99.90
60717;DHT22;46566;52.700;6.192;2023-07-31T07:25:43;16.20;99.90
60717;DHT22;46566;52.700;6.192;2023-07-31T07:28:10;16.20;99.90
60717;DHT22;46566;52.700;6.192;2023-07-31T07:30:35;16.30;99.90
60717;DHT22;46566;52.700;6.192;2023-07-31T07:33:01;16.30;99.90
60717;DHT22;46566;52.700;6.192;2023-07-31T07:35:27;16.30;99.90
60717;DHT22;46566;52.700;6.192;2023-07-31T07:37:53;16.30;99.90
60717;DHT22;46566;52.700;6.192;2023-07-31T07:40:19;16.30;99.90
60717;DHT22;46566;52.700;6.192;2023-07-31T07:42:45;16.30;99.90
60717;DHT22;46566;52.700;6.192;2023-07-31T07:45:11;16.30;99.90
60717;DHT22;46566;52.700;6.192;2023-07-31T07:47:40;16.30;99.90
60717;DHT22;46566;52.700;6.192;2023-07-31T07:50:06;16.30;99.90
60717;DHT22;46566;52.700;6.192;2023-07-31T07:52:32;16.30;99.90
60717;DHT22;46566;52.700;6.192;2023-07-31T07:54:57;16.30;99.90
60717;DHT22;46566;52.700;6.192;2023-07-31T07:57:23;16.40;99.90
60717;DHT22;46566;52.700;6.192;2023-07-31T07:59:49;16.40;99.90
60717;DHT22;46566;52.700;6.192;2023-07-31T08:02:14;16.40;99.90
60717;DHT22;46566;52.700;6.192;2023-07-31T08:04:40;16.40;99.90
60717;DHT22;46566;52.700;6.192;2023-07-31T08:07:06;16.40;99.90
60717;DHT22;46566;52.700;6.192;2023-07-31T08:09:32;16.50;99.90
60717;DHT22;46566;52.700;6.192;2023-07-31T08:11:57;16.50;99.90
60717;DHT22;46566;52.700;6.192;2023-07-31T08:14:27;16.50;99.90
60717;DHT22;46566;52.700;6.192;2023-07-31T08:16:53;16.60;99.90
60717;DHT22;46566;52.700;6.192;2023-07-31T08:19:19;16.60;99.90
60717;DHT22;46566;52.700;6.192;2023-07-31T08:21:44;16.60;99.90
60717;DHT22;46566;52.700;6.192;2023-07-31T08:24:10;16.60;99.90
60717;DHT22;46566;52.700;6.192;2023-07-31T08:29:02;16.70;99.90
60717;DHT22;46566;52.700;6.192;2023-07-31T08:31:27;16.70;99.90
60717;DHT22;46566;52.700;6.192;2023-07-31T08:33:55;16.70;99.90
60717;DHT22;46566;52.700;6.192;2023-07-31T08:36:21;16.70;99.90
60717;DHT22;46566;52.700;6.192;2023-07-31T08:38:47;16.70;99.90
60717;DHT22;46566;52.700;6.192;2023-07-31T08:41:12;16.70;99.90
60717;DHT22;46566;52.700;6.192;2023-07-31T08:43:44;16.70;99.90
60717;DHT22;46566;52.700;6.192;2023-07-31T08:46:11;16.70;99.90
60717;DHT22;46566;52.700;6.192;2023-07-31T08:48:37;16.80;99.90
60717;DHT22;46566;52.700;6.192;2023-07-31T08:51:06;16.80;99.90
60717;DHT22;46566;52.700;6.192;2023-07-31T08:53:32;16.90;99.90
60717;DHT22;46566;52.700;6.192;2023-07-31T08:55:59;16.90;99.90
60717;DHT22;46566;52.700;6.192;2023-07-31T09:03:18;16.90;99.90
60717;DHT22;46566;52.700;6.192;2023-07-31T09:05:46;17.00;99.90
60717;DHT22;46566;52.700;6.192;2023-07-31T09:08:18;17.00;99.90
60717;DHT22;46566;52.700;6.192;2023-07-31T09:10:45;17.00;99.90
60717;DHT22;46566;52.700;6.192;2023-07-31T09:13:17;17.00;99.90
60717;DHT22;46566;52.700;6.192;2023-07-31T09:15:44;17.10;99.90
60717;DHT22;46566;52.700;6.192;2023-07-31T09:18:10;17.10;99.90
60717;DHT22;46566;52.700;6.192;2023-07-31T09:20:37;17.10;99.90
60717;DHT22;46566;52.700;6.192;2023-07-31T09:23:10;17.10;99.90
60717;DHT22;46566;52.700;6.192;2023-07-31T09:25:37;17.20;99.90
60717;DHT22;46566;52.700;6.192;2023-07-31T09:28:08;17.20;99.90
60717;DHT22;46566;52.700;6.192;2023-07-31T09:30:50;17.30;99.90
60717;DHT22;46566;52.700;6.192;2023-07-31T09:33:17;17.30;99.90
60717;DHT22;46566;52.700;6.192;2023-07-31T09:35:43;17.40;99.90
60717;DHT22;46566;52.700;6.192;2023-07-31T09:38:13;17.40;99.90
60717;DHT22;46566;52.700;6.192;2023-07-31T09:40:44;17.40;99.90
60717;DHT22;46566;52.700;6.192;2023-07-31T09:43:12;17.40;99.90
60717;DHT22;46566;52.700;6.192;2023-07-31T09:45:40;17.50;99.90
60717;DHT22;46566;52.700;6.192;2023-07-31T09:48:16;17.50;99.90
60717;DHT22;46566;52.700;6.192;2023-07-31T09:50:44;17.50;99.90
60717;DHT22;46566;52.700;6.192;2023-07-31T09:53:11;17.50;99.90
60717;DHT22;46566;52.700;6.192;2023-07-31T09:55:38;17.60;99.90
60717;DHT22;46566;52.700;6.192;2023-07-31T09:58:06;17.60;99.90
60717;DHT22;46566;52.700;6.192;2023-07-31T10:00:32;17.60;99.90
60717;DHT22;46566;52.700;6.192;2023-07-31T10:03:00;17.60;99.90
60717;DHT22;46566;52.700;6.192;2023-07-31T10:05:34;17.70;99.90
60717;DHT22;46566;52.700;6.192;2023-07-31T10:10:27;17.70;99.90
60717;DHT22;46566;52.700;6.192;2023-07-31T10:12:53;17.80;99.90
60717;DHT22;46566;52.700;6.192;2023-07-31T10:15:20;17.80;99.90
60717;DHT22;46566;52.700;6.192;2023-07-31T10:17:47;17.90;99.90
60717;DHT22;46566;52.700;6.192;2023-07-31T10:20:15;17.80;99.90
60717;DHT22;46566;52.700;6.192;2023-07-31T10:22:42;17.90;99.90
60717;DHT22;46566;52.700;6.192;2023-07-31T10:25:09;17.90;99.90
60717;DHT22;46566;52.700;6.192;2023-07-31T10:27:41;18.00;99.90
60717;DHT22;46566;52.700;6.192;2023-07-31T10:30:13;18.00;99.90
60717;DHT22;46566;52.700;6.192;2023-07-31T10:32:41;18.00;99.90
60717;DHT22;46566;52.700;6.192;2023-07-31T10:35:09;18.00;99.90
60717;DHT22;46566;52.700;6.192;2023-07-31T10:37:42;18.10;99.90
60717;DHT22;46566;52.700;6.192;2023-07-31T10:40:19;18.20;99.90
60717;DHT22;46566;52.700;6.192;2023-07-31T10:47:59;18.20;99.90
60717;DHT22;46566;52.700;6.192;2023-07-31T10:50:26;18.20;99.90
60717;DHT22;46566;52.700;6.192;2023-07-31T10:52:54;18.30;99.90
60717;DHT22;46566;52.700;6.192;2023-07-31T11:00:44;18.40;99.90
60717;DHT22;46566;52.700;6.192;2023-07-31T11:03:13;18.30;99.90
60717;DHT22;46566;52.700;6.192;2023-07-31T11:08:25;18.40;99.90
60717;DHT22;46566;52.700;6.192;2023-07-31T11:13:30;18.50;99.90
60717;DHT22;46566;52.700;6.192;2023-07-31T11:15:55;18.60;99.90
60717;DHT22;46566;52.700;6.192;2023-07-31T11:18:21;18.60;99.90
60717;DHT22;46566;52.700;6.192;2023-07-31T11:20:47;18.70;99.90
60717;DHT22;46566;52.700;6.192;2023-07-31T11:23:16;18.90;99.90
60717;DHT22;46566;52.700;6.192;2023-07-31T11:25:41;19.10;99.90
60717;DHT22;46566;52.700;6.192;2023-07-31T11:28:10;19.10;99.90
60717;DHT22;46566;52.700;6.192;2023-07-31T11:30:36;19.20;99.90
60717;DHT22;46566;52.700;6.192;2023-07-31T11:33:03;19.20;99.90
60717;DHT22;46566;52.700;6.192;2023-07-31T11:35:34;19.20;99.90
60717;DHT22;46566;52.700;6.192;2023-07-31T11:38:01;19.30;99.90
60717;DHT22;46566;52.700;6.192;2023-07-31T11:40:27;19.40;99.90
60717;DHT22;46566;52.700;6.192;2023-07-31T11:42:58;19.40;99.90
60717;DHT22;46566;52.700;6.192;2023-07-31T11:45:27;19.50;99.90
60717;DHT22;46566;52.700;6.192;2023-07-31T11:47:57;19.50;99.90
60717;DHT22;46566;52.700;6.192;2023-07-31T11:50:23;19.50;99.90
60717;DHT22;46566;52.700;6.192;2023-07-31T11:52:57;19.50;99.90
60717;DHT22;46566;52.700;6.192;2023-07-31T11:55:24;19.60;99.90
60717;DHT22;46566;52.700;6.192;2023-07-31T11:57:52;19.60;99.90
60717;DHT22;46566;52.700;6.192;2023-07-31T12:00:19;19.60;99.90
60717;DHT22;46566;52.700;6.192;2023-07-31T12:02:45;19.60;99.90
60717;DHT22;46566;52.700;6.192;2023-07-31T12:05:12;19.60;99.90
60717;DHT22;46566;52.700;6.192;2023-07-31T12:07:52;19.50;99.90
60717;DHT22;46566;52.700;6.192;2023-07-31T12:12:58;19.60;99.90
60717;DHT22;46566;52.700;6.192;2023-07-31T12:15:37;19.70;99.90
60717;DHT22;46566;52.700;6.192;2023-07-31T12:18:11;19.90;99.90
60717;DHT22;46566;52.700;6.192;2023-07-31T12:20:47;20.10;99.90
60717;DHT22;46566;52.700;6.192;2023-07-31T12:23:22;20.30;99.90
60717;DHT22;46566;52.700;6.192;2023-07-31T12:26:33;20.40;99.90
60717;DHT22;46566;52.700;6.192;2023-07-31T12:28:47;20.50;99.90
60717;DHT22;46566;52.700;6.192;2023-07-31T12:31:18;20.50;99.90
60717;DHT22;46566;52.700;6.192;2023-07-31T12:33:45;20.40;99.90
60717;DHT22;46566;52.700;6.192;2023-07-31T12:36:13;20.40;99.90
60717;DHT22;46566;52.700;6.192;2023-07-31T12:38:38;20.30;99.90
60717;DHT22;46566;52.700;6.192;2023-07-31T12:41:04;20.30;99.90
60717;DHT22;46566;52.700;6.192;2023-07-31T12:43:33;20.20;99.90
60717;DHT22;46566;52.700;6.192;2023-07-31T12:45:59;20.20;99.90
60717;DHT22;46566;52.700;6.192;2023-07-31T12:48:25;20.30;99.90
60717;DHT22;46566;52.700;6.192;2023-07-31T12:50:51;20.20;99.90
60717;DHT22;46566;52.700;6.192;2023-07-31T12:53:16;20.20;99.90
60717;DHT22;46566;52.700;6.192;2023-07-31T12:55:42;20.20;99.90
60717;DHT22;46566;52.700;6.192;2023-07-31T12:58:08;20.20;99.90
60717;DHT22;46566;52.700;6.192;2023-07-31T13:00:59;20.20;99.90
60717;DHT22;46566;52.700;6.192;2023-07-31T13:03:24;20.30;99.90
60717;DHT22;46566;52.700;6.192;2023-07-31T13:05:50;20.30;99.90
60717;DHT22;46566;52.700;6.192;2023-07-31T13:08:36;20.30;99.90
60717;DHT22;46566;52.700;6.192;2023-07-31T13:11:02;20.40;99.90
60717;DHT22;46566;52.700;6.192;2023-07-31T13:13:27;20.40;99.90
60717;DHT22;46566;52.700;6.192;2023-07-31T13:15:54;20.40;99.90
60717;DHT22;46566;52.700;6.192;2023-07-31T13:18:19;20.50;99.90
60717;DHT22;46566;52.700;6.192;2023-07-31T13:21:11;20.50;99.90
60717;DHT22;46566;52.700;6.192;2023-07-31T13:23:36;20.40;99.90
60717;DHT22;46566;52.700;6.192;2023-07-31T13:26:02;20.40;99.90
60717;DHT22;46566;52.700;6.192;2023-07-31T13:28:28;20.40;99.90
60717;DHT22;46566;52.700;6.192;2023-07-31T13:31:19;20.30;99.90
60717;DHT22;46566;52.700;6.192;2023-07-31T13:33:44;20.30;99.90
60717;DHT22;46566;52.700;6.192;2023-07-31T13:36:10;20.30;99.90
60717;DHT22;46566;52.700;6.192;2023-07-31T13:38:37;20.30;99.90
60717;DHT22;46566;52.700;6.192;2023-07-31T13:41:28;20.30;99.90
60717;DHT22;46566;52.700;6.192;2023-07-31T13:43:54;20.30;99.90
60717;DHT22;46566;52.700;6.192;2023-07-31T13:46:19;20.30;99.90
60717;DHT22;46566;52.700;6.192;2023-07-31T13:48:45;20.30;99.90
60717;DHT22;46566;52.700;6.192;2023-07-31T13:51:36;20.30;99.90
60717;DHT22;46566;52.700;6.192;2023-07-31T13:54:03;20.40;99.90
60717;DHT22;46566;52.700;6.192;2023-07-31T13:56:29;20.50;99.90
60717;DHT22;46566;52.700;6.192;2023-07-31T13:58:55;20.50;99.90
60717;DHT22;46566;52.700;6.192;2023-07-31T14:01:46;20.60;99.90
60717;DHT22;46566;52.700;6.192;2023-07-31T14:04:12;20.60;99.90
60717;DHT22;46566;52.700;6.192;2023-07-31T14:06:38;20.60;99.90
60717;DHT22;46566;52.700;6.192;2023-07-31T14:09:04;20.60;99.90
60717;DHT22;46566;52.700;6.192;2023-07-31T14:11:55;20.60;99.90
60717;DHT22;46566;52.700;6.192;2023-07-31T14:14:21;20.60;99.90
60717;DHT22;46566;52.700;6.192;2023-07-31T14:16:47;20.60;99.90
60717;DHT22;46566;52.700;6.192;2023-07-31T14:19:13;20.60;99.90
60717;DHT22;46566;52.700;6.192;2023-07-31T14:22:04;20.60;99.90
60717;DHT22;46566;52.700;6.192;2023-07-31T14:24:30;20.50;99.90
60717;DHT22;46566;52.700;6.192;2023-07-31T14:26:56;20.50;99.90
60717;DHT22;46566;52.700;6.192;2023-07-31T14:29:21;20.60;99.90
60717;DHT22;46566;52.700;6.192;2023-07-31T14:32:12;20.50;99.90
60717;DHT22;46566;52.700;6.192;2023-07-31T14:34:37;20.50;99.90
60717;DHT22;46566;52.700;6.192;2023-07-31T14:37:03;20.40;99.90
60717;DHT22;46566;52.700;6.192;2023-07-31T14:39:29;20.30;99.90
60717;DHT22;46566;52.700;6.192;2023-07-31T14:42:20;20.20;99.90
60717;DHT22;46566;52.700;6.192;2023-07-31T14:44:46;20.10;99.90
60717;DHT22;46566;52.700;6.192;2023-07-31T14:47:12;20.10;99.90
60717;DHT22;46566;52.700;6.192;2023-07-31T14:49:38;20.00;99.90
60717;DHT22;46566;52.700;6.192;2023-07-31T14:52:29;20.00;99.90
60717;DHT22;46566;52.700;6.192;2023-07-31T14:54:55;20.00;99.90
60717;DHT22;46566;52.700;6.192;2023-07-31T14:57:20;20.00;99.90
60717;DHT22;46566;52.700;6.192;2023-07-31T14:59:46;19.90;99.90
60717;DHT22;46566;52.700;6.192;2023-07-31T15:02:37;19.90;99.90
60717;DHT22;46566;52.700;6.192;2023-07-31T15:05:03;19.80;99.90
60717;DHT22;46566;52.700;6.192;2023-07-31T15:07:29;19.80;99.90
60717;DHT22;46566;52.700;6.192;2023-07-31T15:09:55;19.70;99.90
60717;DHT22;46566;52.700;6.192;2023-07-31T15:12:46;19.70;99.90
60717;DHT22;46566;52.700;6.192;2023-07-31T15:15:11;19.60;99.90
60717;DHT22;46566;52.700;6.192;2023-07-31T15:17:37;19.60;99.90
60717;DHT22;46566;52.700;6.192;2023-07-31T15:20:22;19.50;99.90
60717;DHT22;46566;52.700;6.192;2023-07-31T15:22:48;19.40;99.90
60717;DHT22;46566;52.700;6.192;2023-07-31T15:25:14;19.30;99.90
60717;DHT22;46566;52.700;6.192;2023-07-31T15:27:40;19.20;99.90
60717;DHT22;46566;52.700;6.192;2023-07-31T15:30:06;19.10;99.90
60717;DHT22;46566;52.700;6.192;2023-07-31T15:32:57;19.00;99.90
60717;DHT22;46566;52.700;6.192;2023-07-31T15:35:23;19.00;99.90
60717;DHT22;46566;52.700;6.192;2023-07-31T15:37:49;19.00;99.90
60717;DHT22;46566;52.700;6.192;2023-07-31T15:40:15;19.00;99.90
60717;DHT22;46566;52.700;6.192;2023-07-31T15:43:06;19.00;99.90
60717;DHT22;46566;52.700;6.192;2023-07-31T15:45:32;19.00;99.90
60717;DHT22;46566;52.700;6.192;2023-07-31T15:47:57;19.00;99.90
60717;DHT22;46566;52.700;6.192;2023-07-31T15:50:23;19.00;99.90
60717;DHT22;46566;52.700;6.192;2023-07-31T15:53:14;19.00;99.90
60717;DHT22;46566;52.700;6.192;2023-07-31T15:55:40;19.10;99.90
60717;DHT22;46566;52.700;6.192;2023-07-31T15:58:05;19.10;99.90
60717;DHT22;46566;52.700;6.192;2023-07-31T16:00:33;19.00;99.90
60717;DHT22;46566;52.700;6.192;2023-07-31T16:03:24;19.10;99.90
60717;DHT22;46566;52.700;6.192;2023-07-31T16:05:50;19.10;99.90
60717;DHT22;46566;52.700;6.192;2023-07-31T16:08:15;19.10;99.90
60717;DHT22;46566;52.700;6.192;2023-07-31T16:10:41;19.10;99.90
60717;DHT22;46566;52.700;6.192;2023-07-31T16:13:32;19.10;99.90
60717;DHT22;46566;52.700;6.192;2023-07-31T16:15:58;19.20;99.90